»·PEaware :: WAT1252 KRDD-KSAC

WAT1252 :: KRDD-KSAC

FLIGHT INFORMATION

Flight Status: Arrived
Operator:
Walker Air Transport
More flights by this operator :: More flights under this callsign
Pilot: David D. (37029)
Aircraft: BEECH AIRCRAFT DEBONAIR BONANZA
(BE33)
More flights by this aircraft type
Origin: KRDD Redding Mun
United States
Destination: KSAC Sacramento Executive
United States
More flights between these airports :: More routes between these airports
Route: KENDL RBL V23 SAC
File this flight plan on PilotEdge
Remarks:
Altitude:
(Current/Filed)
7,000ft
Speed:
(Current/Filed)
165kts
Departed: 24-Jun-22 12:57 PM
Arrived: 24-Jun-22 01:53 PM
Distance/Time
Traveled:
125nm/0:56
Distance/Time
To Go:
Arrived

Flight Plot

Page will automatically refresh every two minutes.

Flight plan parsing failed; only flown route is shown


Map Options




Map Legend


Flown Route
Filed Route
Departure Airport
Arrival Airport
Navaid (VOR, NDB)
Fix

Horizontal Profiles

Position Reports

Time Latitude Longitude Heading Altitude Ground
Speed
24-Jun-22 12:32 40.509331 -122.298235 0 498ft 0kts
24-Jun-22 12:33 40.509331 -122.298235 0 498ft 0kts
24-Jun-22 12:34 40.509331 -122.298235 0 498ft 0kts
24-Jun-22 12:35 40.509331 -122.298235 0 498ft 0kts
24-Jun-22 12:36 40.509331 -122.298235 0 498ft 0kts
24-Jun-22 12:37 40.509331 -122.298235 0 498ft 0kts
24-Jun-22 12:38 40.509331 -122.298235 0 498ft 0kts
24-Jun-22 12:39 40.509331 -122.298235 0 498ft 0kts
24-Jun-22 12:40 40.509331 -122.298235 0 498ft 0kts
24-Jun-22 12:41 40.509331 -122.298235 0 498ft 0kts
24-Jun-22 12:42 40.509331 -122.298235 0 498ft 0kts
24-Jun-22 12:43 40.509331 -122.298235 0 498ft 0kts
24-Jun-22 12:44 40.509331 -122.298235 0 498ft 0kts
24-Jun-22 12:45 40.509331 -122.298235 0 498ft 0kts
24-Jun-22 12:46 40.508928 -122.297613 158 498ft 5kts
24-Jun-22 12:47 40.508934 -122.296501 34 497ft 8kts
24-Jun-22 12:48 40.510835 -122.296313 0 498ft 8kts
24-Jun-22 12:49 40.513559 -122.296292 358 503ft 10kts
24-Jun-22 12:50 40.516644 -122.296291 0 505ft 11kts
24-Jun-22 12:51 40.518641 -122.296284 359 506ft 6kts
24-Jun-22 12:52 40.520169 -122.296055 53 508ft 0kts
24-Jun-22 12:53 40.520170 -122.296054 53 508ft 0kts
24-Jun-22 12:54 40.520170 -122.296054 53 508ft 0kts
24-Jun-22 12:55 40.520214 -122.295966 66 508ft 4kts
24-Jun-22 12:56 40.510852 -122.294921 182 628ft 83kts
24-Jun-22 12:57 40.487121 -122.296212 178 1507ft 87kts
24-Jun-22 12:58 40.462431 -122.294506 171 2228ft 89kts
24-Jun-22 12:59 40.447109 -122.273331 139 2875ft 89kts
24-Jun-22 13:00 40.421302 -122.258907 161 3421ft 113kts
24-Jun-22 13:01 40.389380 -122.245775 164 4017ft 122kts
24-Jun-22 13:02 40.356559 -122.237856 181 4708ft 118kts
24-Jun-22 13:03 40.324263 -122.237892 181 5398ft 114kts
24-Jun-22 13:04 40.293550 -122.237602 181 6083ft 107kts
24-Jun-22 13:05 40.264982 -122.237061 181 6728ft 100kts
24-Jun-22 13:06 40.235288 -122.236957 182 7027ft 123kts
24-Jun-22 13:07 40.196379 -122.237296 181 7020ft 149kts
24-Jun-22 13:08 40.153955 -122.236876 181 7019ft 153kts
24-Jun-22 13:09 40.110765 -122.236332 181 7018ft 154kts
24-Jun-22 13:10 40.069573 -122.220920 159 7019ft 157kts
24-Jun-22 13:11 40.028466 -122.199281 159 7019ft 160kts
24-Jun-22 13:12 39.987158 -122.177541 159 7019ft 160kts
24-Jun-22 13:13 39.945939 -122.155946 160 7021ft 159kts
24-Jun-22 13:14 39.905318 -122.134685 160 7023ft 157kts
24-Jun-22 13:15 39.865085 -122.113668 159 7026ft 153kts
24-Jun-22 13:16 39.826152 -122.093279 159 7028ft 149kts
24-Jun-22 13:17 39.787440 -122.073110 159 7028ft 149kts
24-Jun-22 13:18 39.749159 -122.053141 159 7028ft 147kts
24-Jun-22 13:19 39.711093 -122.033352 159 7028ft 147kts
24-Jun-22 13:20 39.673141 -122.013652 159 7028ft 147kts
24-Jun-22 13:21 39.635077 -121.993912 159 7028ft 147kts
24-Jun-22 13:22 39.596937 -121.974032 159 7023ft 150kts
24-Jun-22 13:23 39.557455 -121.953739 159 7027ft 154kts
24-Jun-22 13:24 39.517390 -121.933044 159 7026ft 155kts
24-Jun-22 13:25 39.477161 -121.912252 159 7026ft 155kts
24-Jun-22 13:26 39.436946 -121.891623 160 7026ft 155kts
24-Jun-22 13:27 39.396761 -121.870934 159 7026ft 155kts
24-Jun-22 13:28 39.356617 -121.850296 160 7026ft 155kts
24-Jun-22 13:29 39.315975 -121.831854 168 7022ft 155kts
24-Jun-22 13:30 39.274238 -121.818103 167 7017ft 155kts
24-Jun-22 13:31 39.232521 -121.804512 167 7013ft 155kts
24-Jun-22 13:32 39.190652 -121.790936 167 7008ft 155kts
24-Jun-22 13:33 39.149024 -121.777465 167 7008ft 155kts
24-Jun-22 13:34 39.107097 -121.763932 167 7009ft 156kts
24-Jun-22 13:35 39.064997 -121.750372 167 7008ft 156kts
24-Jun-22 13:36 39.022737 -121.736729 167 7008ft 156kts
24-Jun-22 13:37 38.980541 -121.723114 167 7009ft 156kts
24-Jun-22 13:38 38.942142 -121.695957 148 6809ft 166kts
24-Jun-22 13:39 38.901102 -121.665624 151 6320ft 173kts
24-Jun-22 13:40 38.859409 -121.634661 151 5828ft 174kts
24-Jun-22 13:41 38.819032 -121.600671 143 5332ft 175kts
24-Jun-22 13:42 38.780971 -121.561129 142 4657ft 174kts
24-Jun-22 13:43 38.743711 -121.522837 143 3959ft 170kts
24-Jun-22 13:44 38.707026 -121.485309 143 3262ft 167kts
24-Jun-22 13:45 38.672374 -121.449476 143 3000ft 148kts
24-Jun-22 13:46 38.641065 -121.419316 167 3003ft 134kts
24-Jun-22 13:47 38.601750 -121.415160 213 2384ft 151kts
24-Jun-22 13:48 38.576343 -121.438130 213 1800ft 87kts
24-Jun-22 13:49 38.556869 -121.456591 216 1109ft 85kts
24-Jun-22 13:50 38.539252 -121.472021 215 701ft 73kts
24-Jun-22 13:51 38.521737 -121.486921 214 163ft 80kts
24-Jun-22 13:52 38.511340 -121.496369 268 22ft 6kts
24-Jun-22 13:53 38.512861 -121.496053 33 24ft 10kts
24-Jun-22 13:54 38.513934 -121.497030 322 23ft 4kts
24-Jun-22 13:55 38.514090 -121.497899 207 23ft 0kts
24-Jun-22 13:56 38.514090 -121.497899 207 23ft 0kts
24-Jun-22 13:57 38.514090 -121.497899 207 23ft 0kts

Navigation Log

Ident Type
Flight plan parsing failed, navigation log unavailable